Time;durP1;ratioP1;P1;durP2;ratioP2;P2;SDS_P1;SDS_P2;PMS_P1;PMS_P2;Temp;Humidity;BMP_temperature;BMP_pressure;BME280_temperature;BME280_humidity;BME280_pressure;Samples;Min_cycle;Max_cycle;Signal;HPM_P1;HPM_P2
2022/09/21 00:00:13;;;;;;;3.07;2.40;;;;;;;10.78;92.21;97213.78;4929729;29;20248;-55
2022/09/21 00:02:40;;;;;;;2.90;2.30;;;;;;;10.70;91.33;97215.41;4926626;29;20234;-54
2022/09/21 00:05:07;;;;;;;3.57;2.33;;;;;;;10.67;93.26;97207.72;4928064;29;20238;-55
2022/09/21 00:07:34;;;;;;;2.47;2.27;;;;;;;10.58;93.01;97217.28;4920605;29;20204;-56
2022/09/21 00:10:02;;;;;;;3.83;2.30;;;;;;;10.65;92.61;97214.97;4918763;29;20200;-56
2022/09/21 00:12:28;;;;;;;3.57;2.07;;;;;;;10.54;93.99;97215.84;4911480;29;20208;-56
2022/09/21 00:14:55;;;;;;;3.17;2.20;;;;;;;10.47;95.29;97217.34;4911645;29;20220;-56
2022/09/21 00:17:22;;;;;;;3.53;2.10;;;;;;;10.40;94.52;97216.19;4913208;29;20789;-55
2022/09/21 00:19:48;;;;;;;2.50;2.30;;;;;;;10.31;93.13;97220.41;4914966;29;20287;-55
2022/09/21 00:22:15;;;;;;;3.13;2.10;;;;;;;10.20;92.71;97217.00;4915840;29;20272;-56
2022/09/21 00:24:42;;;;;;;2.37;2.10;;;;;;;10.12;94.12;97222.03;4911102;29;20215;-56
2022/09/21 00:27:10;;;;;;;3.63;2.37;;;;;;;10.05;96.14;97212.94;4912930;29;20214;-55
2022/09/21 00:29:36;;;;;;;3.60;2.50;;;;;;;9.97;95.36;97216.19;4917383;29;20278;-57
2022/09/21 00:32:03;;;;;;;2.70;2.13;;;;;;;9.91;94.33;97214.91;4918653;29;20208;-56
2022/09/21 00:34:31;;;;;;;2.07;1.93;;;;;;;9.89;96.52;97215.97;4908115;29;20653;-55
2022/09/21 00:36:58;;;;;;;2.87;2.20;;;;;;;9.86;94.89;97217.06;4908054;29;20268;-56
2022/09/21 00:39:24;;;;;;;3.23;2.70;;;;;;;9.84;97.14;97215.53;4907819;29;20339;-56
2022/09/21 00:41:52;;;;;;;3.63;2.43;;;;;;;9.73;96.79;97212.91;4906450;29;20681;-56
2022/09/21 00:44:31;;;;;;;3.57;2.10;;;;;;;9.71;97.26;97215.66;4907308;29;20267;-56
2022/09/21 00:47:02;;;;;;;2.50;2.30;;;;;;;9.69;95.54;97220.25;4907557;29;20594;-56
2022/09/21 00:49:29;;;;;;;4.03;2.70;;;;;;;9.67;97.28;97223.97;4908488;29;20214;-56
2022/09/21 00:51:56;;;;;;;3.87;2.50;;;;;;;9.60;97.00;97213.03;4907870;29;20298;-57
2022/09/21 00:54:26;;;;;;;3.27;2.53;;;;;;;9.54;97.49;97213.53;4907926;29;20216;-56
2022/09/21 00:56:54;;;;;;;2.73;2.53;;;;;;;9.48;98.85;97216.69;4907643;29;20529;-56
2022/09/21 00:59:22;;;;;;;4.97;2.93;;;;;;;9.49;97.56;97205.97;4908511;29;20298;-56
2022/09/21 01:01:50;;;;;;;4.23;2.70;;;;;;;9.48;99.58;97203.47;4907159;29;20248;-55
2022/09/21 01:04:18;;;;;;;3.00;2.60;;;;;;;9.52;99.20;97204.91;4907632;29;20311;-55
2022/09/21 01:06:46;;;;;;;3.17;2.50;;;;;;;9.46;98.47;97210.66;4907180;29;20675;-56
2022/09/21 01:09:13;;;;;;;3.47;2.50;;;;;;;9.50;98.34;97210.31;4907406;29;20223;-55
2022/09/21 01:11:48;;;;;;;2.93;2.40;;;;;;;9.39;99.52;97214.75;4907458;29;20303;-55
2022/09/21 01:14:39;;;;;;;2.63;2.43;;;;;;;9.37;100.00;97206.13;4906750;29;20732;-55
2022/09/21 01:17:14;;;;;;;5.43;2.73;;;;;;;9.32;100.00;97213.56;4906994;29;20310;-56
2022/09/21 01:20:11;;;;;;;2.83;2.60;;;;;;;9.37;100.00;97212.25;4906990;29;20282;-55
2022/09/21 01:22:51;;;;;;;2.90;2.57;;;;;;;9.34;100.00;97209.03;4907197;29;20228;-56
2022/09/21 01:25:27;;;;;;;5.37;3.10;;;;;;;9.30;100.00;97210.22;4907028;29;20205;-54
2022/09/21 01:28:03;;;;;;;6.90;3.70;;;;;;;9.22;100.00;97207.34;4908705;29;20551;-55
2022/09/21 01:30:34;;;;;;;3.47;2.80;;;;;;;9.21;100.00;97210.97;4907476;29;20559;-54
2022/09/21 01:33:05;;;;;;;3.40;2.90;;;;;;;9.18;100.00;97208.53;4907010;29;20208;-55
2022/09/21 01:35:35;;;;;;;3.20;2.60;;;;;;;9.20;100.00;97209.28;4906869;29;20232;-55
2022/09/21 01:38:05;;;;;;;3.57;2.93;;;;;;;9.12;100.00;97207.22;4907071;29;20778;-56
2022/09/21 01:40:33;;;;;;;5.77;3.00;;;;;;;9.06;100.00;97217.44;4907597;29;20247;-56
2022/09/21 01:43:01;;;;;;;3.83;3.27;;;;;;;9.05;100.00;97216.59;4906508;29;20330;-54
2022/09/21 01:45:33;;;;;;;3.97;3.00;;;;;;;9.09;100.00;97211.91;4906127;29;20239;-56
2022/09/21 01:48:00;;;;;;;4.83;3.07;;;;;;;9.13;100.00;97213.34;4906152;29;20200;-55
2022/09/21 01:50:31;;;;;;;3.10;2.90;;;;;;;9.18;100.00;97211.19;4906284;29;20200;-55
2022/09/21 01:53:01;;;;;;;3.03;2.80;;;;;;;9.22;100.00;97217.91;4906083;29;20295;-55
2022/09/21 01:55:31;;;;;;;3.17;2.83;;;;;;;9.29;100.00;97217.28;4906742;29;20212;-56
2022/09/21 01:58:01;;;;;;;4.53;3.03;;;;;;;9.35;100.00;97214.16;4910130;29;20228;-55
2022/09/21 02:00:28;;;;;;;3.27;2.90;;;;;;;9.33;100.00;97215.25;4908868;29;20232;-55
2022/09/21 02:02:59;;;;;;;2.97;2.73;;;;;;;9.34;100.00;97211.66;4906739;29;20322;-56
2022/09/21 02:05:27;;;;;;;4.33;3.03;;;;;;;9.35;100.00;97208.06;4907519;29;20287;-55
2022/09/21 02:07:54;;;;;;;3.63;2.90;;;;;;;9.35;100.00;97203.59;4907348;29;20220;-56
2022/09/21 02:10:27;;;;;;;4.93;3.47;;;;;;;9.31;99.96;97211.91;4906583;29;20600;-54
2022/09/21 02:12:55;;;;;;;5.80;3.10;;;;;;;9.24;100.00;97202.81;4909993;29;20219;-56
2022/09/21 02:15:29;;;;;;;3.23;2.93;;;;;;;9.23;100.00;97204.59;4910453;29;20226;-56
2022/09/21 02:18:05;;;;;;;5.30;3.17;;;;;;;9.23;100.00;97201.97;4909193;29;20238;-56
2022/09/21 02:20:33;;;;;;;4.70;2.97;;;;;;;9.16;100.00;97203.41;4911629;29;20588;-54
2022/09/21 02:23:05;;;;;;;3.43;3.00;;;;;;;9.21;99.22;97205.69;4919265;29;20204;-55
2022/09/21 02:25:40;;;;;;;4.50;3.20;;;;;;;9.11;100.00;97199.44;4923822;29;20197;-56
2022/09/21 02:28:10;;;;;;;4.03;3.07;;;;;;;9.05;100.00;97200.75;4921508;29;20199;-56
2022/09/21 02:30:38;;;;;;;3.77;3.20;;;;;;;9.06;100.00;97196.31;4910557;29;20569;-56
2022/09/21 02:33:11;;;;;;;5.20;3.23;;;;;;;9.00;100.00;97201.09;4906212;29;20236;-55
2022/09/21 02:35:40;;;;;;;4.47;3.50;;;;;;;8.88;100.00;97202.09;4905627;29;20755;-56
2022/09/21 02:38:11;;;;;;;3.63;3.33;;;;;;;8.83;100.00;97206.84;4906555;29;20303;-56
2022/09/21 02:40:40;;;;;;;3.67;3.23;;;;;;;8.84;100.00;97207.72;4905574;29;20314;-56
2022/09/21 02:43:11;;;;;;;4.50;3.37;;;;;;;8.85;100.00;97204.13;4905845;29;20276;-55
2022/09/21 02:45:41;;;;;;;3.47;3.07;;;;;;;8.91;100.00;97199.19;4886497;29;20209;-56
2022/09/21 02:48:13;;;;;;;4.20;3.13;;;;;;;8.85;100.00;97198.84;4888159;29;20205;-55
2022/09/21 02:50:43;;;;;;;5.40;3.20;;;;;;;8.90;100.00;97202.78;4890522;29;20299;-56
2022/09/21 02:53:11;;;;;;;5.00;3.20;;;;;;;8.97;100.00;97198.72;4890275;29;20296;-56
2022/09/21 02:55:38;;;;;;;4.03;3.20;;;;;;;8.85;100.00;97194.41;4891443;29;20595;-55
2022/09/21 02:58:08;;;;;;;3.30;3.00;;;;;;;8.86;100.00;97201.34;4891340;29;20209;-56
2022/09/21 03:00:35;;;;;;;6.67;3.43;;;;;;;8.84;100.00;97203.28;4891302;29;20252;-56
2022/09/21 03:03:17;;;;;;;3.17;2.83;;;;;;;8.76;100.00;97205.66;4890178;29;20219;-55
2022/09/21 03:05:45;;;;;;;3.77;3.37;;;;;;;8.74;100.00;97197.03;4891442;29;20217;-56
2022/09/21 03:08:11;;;;;;;5.93;3.30;;;;;;;8.78;100.00;97205.53;4892187;29;20287;-56
2022/09/21 03:10:39;;;;;;;3.40;2.80;;;;;;;8.77;100.00;97202.06;4891084;29;20272;-55
2022/09/21 03:13:06;;;;;;;5.20;3.30;;;;;;;8.79;100.00;97201.94;4890774;29;20308;-56
2022/09/21 03:15:33;;;;;;;3.20;2.90;;;;;;;8.83;100.00;97201.59;4890803;29;20204;-56
2022/09/21 03:18:00;;;;;;;4.27;3.13;;;;;;;8.85;100.00;97199.69;4891731;29;20241;-56
2022/09/21 03:20:29;;;;;;;7.33;3.37;;;;;;;8.72;100.00;97198.94;4891690;29;20256;-55
2022/09/21 03:22:56;;;;;;;4.97;3.50;;;;;;;8.72;100.00;97198.94;4890075;29;20866;-55
2022/09/21 03:25:23;;;;;;;3.53;2.97;;;;;;;8.71;100.00;97202.56;4891644;29;20228;-55
2022/09/21 03:27:52;;;;;;;3.53;3.33;;;;;;;8.61;100.00;97200.72;4890312;29;20233;-56
2022/09/21 03:30:19;;;;;;;5.97;3.77;;;;;;;8.60;100.00;97197.25;4889503;29;20665;-55
2022/09/21 03:32:46;;;;;;;4.07;3.07;;;;;;;8.64;100.00;97196.06;4890446;29;20511;-55
2022/09/21 03:35:13;;;;;;;4.97;3.23;;;;;;;8.63;100.00;97204.09;4890799;29;20564;-55
2022/09/21 03:37:40;;;;;;;5.10;3.50;;;;;;;8.58;100.00;97199.16;4889859;29;21354;-55
2022/09/21 03:40:08;;;;;;;4.70;3.10;;;;;;;8.57;100.00;97200.13;4889019;29;20701;-56
2022/09/21 03:42:35;;;;;;;3.57;3.23;;;;;;;8.59;100.00;97192.94;4889539;29;20298;-56
2022/09/21 03:45:02;;;;;;;4.30;3.30;;;;;;;8.56;100.00;97201.06;4903736;29;20266;-56
2022/09/21 03:47:29;;;;;;;3.40;3.10;;;;;;;8.60;100.00;97207.81;4907904;29;20667;-56
2022/09/21 03:49:55;;;;;;;3.60;3.30;;;;;;;8.52;100.00;97210.16;4908046;29;20213;-55
2022/09/21 03:52:22;;;;;;;4.93;3.57;;;;;;;8.49;100.00;97207.78;4907809;29;20690;-55
2022/09/21 03:54:50;;;;;;;3.70;3.40;;;;;;;8.46;100.00;97202.75;4907207;29;20199;-55
2022/09/21 03:57:17;;;;;;;5.37;3.50;;;;;;;8.47;100.00;97210.50;4908094;29;20294;-55
2022/09/21 03:59:43;;;;;;;5.20;3.20;;;;;;;8.49;100.00;97210.41;4907217;29;20406;-56
2022/09/21 04:02:10;;;;;;;7.47;3.47;;;;;;;8.47;100.00;97209.66;4914171;29;20247;-56
2022/09/21 04:04:37;;;;;;;4.23;3.20;;;;;;;8.49;100.00;97208.63;4916968;29;20213;-54
2022/09/21 04:07:04;;;;;;;3.83;3.33;;;;;;;8.44;100.00;97202.00;4909754;29;20218;-56
2022/09/21 04:09:31;;;;;;;4.30;3.50;;;;;;;8.37;100.00;97203.41;4912747;29;20200;-56
2022/09/21 04:11:59;;;;;;;3.97;3.37;;;;;;;8.38;100.00;97203.31;4913848;29;20212;-56
2022/09/21 04:14:25;;;;;;;6.23;3.60;;;;;;;8.35;100.00;97210.63;4914931;29;20314;-56
2022/09/21 04:16:52;;;;;;;4.53;3.17;;;;;;;8.25;100.00;97210.44;4907485;29;20208;-56
2022/09/21 04:19:21;;;;;;;3.43;3.13;;;;;;;8.25;100.00;97215.72;4907662;29;20227;-56
2022/09/21 04:21:50;;;;;;;6.67;3.87;;;;;;;8.30;100.00;97218.00;4907485;29;20284;-56
2022/09/21 04:24:18;;;;;;;5.87;3.73;;;;;;;8.24;100.00;97219.28;4907467;29;20204;-55
2022/09/21 04:26:45;;;;;;;4.00;3.60;;;;;;;8.23;100.00;97222.03;4908202;29;20515;-56
2022/09/21 04:29:14;;;;;;;3.83;3.10;;;;;;;8.28;100.00;97219.91;4907210;29;20213;-55
2022/09/21 04:31:40;;;;;;;3.63;3.27;;;;;;;8.32;100.00;97210.84;4908363;29;20607;-55
2022/09/21 04:34:07;;;;;;;3.47;3.13;;;;;;;8.26;100.00;97216.53;4906650;29;20585;-55
2022/09/21 04:36:34;;;;;;;4.03;3.40;;;;;;;8.28;100.00;97219.91;4907577;29;20336;-55
2022/09/21 04:39:01;;;;;;;6.07;3.97;;;;;;;8.34;100.00;97219.47;4907643;29;20292;-56
2022/09/21 04:41:27;;;;;;;8.60;4.43;;;;;;;8.24;100.00;97221.06;4907103;29;20691;-56
2022/09/21 04:43:54;;;;;;;5.23;3.60;;;;;;;8.28;100.00;97212.00;4908452;29;20323;-55
2022/09/21 04:46:22;;;;;;;3.70;3.40;;;;;;;8.29;100.00;97225.06;4910834;29;20243;-56
2022/09/21 04:48:49;;;;;;;3.60;3.30;;;;;;;8.23;100.00;97227.28;4917696;29;20268;-56
2022/09/21 04:51:17;;;;;;;5.33;3.43;;;;;;;8.26;100.00;97222.63;4917004;29;20220;-56
2022/09/21 04:53:44;;;;;;;3.87;3.50;;;;;;;8.16;100.00;97231.34;4918985;29;20240;-63
2022/09/21 04:56:14;;;;;;;4.60;3.37;;;;;;;8.15;100.00;97232.31;4916770;29;20196;-58
2022/09/21 04:58:40;;;;;;;5.20;3.40;;;;;;;8.12;100.00;97228.09;4916287;29;20617;-56
2022/09/21 05:01:07;;;;;;;4.50;3.53;;;;;;;8.17;100.00;97233.88;4911505;29;20259;-56
2022/09/21 05:03:35;;;;;;;6.43;3.33;;;;;;;8.18;100.00;97240.00;4909039;29;20610;-54
2022/09/21 05:06:02;;;;;;;6.93;3.77;;;;;;;8.16;100.00;97239.25;4907854;29;20211;-56
2022/09/21 05:11:14;;;;;;;4.10;3.70;;;;;;;8.18;100.00;97240.00;4905376;29;20222;-56
2022/09/21 05:13:42;;;;;;;6.93;3.53;;;;;;;8.19;100.00;97241.66;4906666;29;20212;-55
2022/09/21 05:16:09;;;;;;;5.70;3.80;;;;;;;8.19;100.00;97239.00;4906206;29;20284;-56
2022/09/21 05:18:37;;;;;;;5.83;3.60;;;;;;;8.13;100.00;97239.47;4906566;29;20789;-55
2022/09/21 05:21:05;;;;;;;4.23;3.80;;;;;;;8.16;100.00;97247.16;4906187;29;20234;-55
2022/09/21 05:23:33;;;;;;;4.70;4.03;;;;;;;8.05;100.00;97247.94;4906593;29;20204;-55
2022/09/21 05:26:00;;;;;;;5.87;4.17;;;;;;;8.15;100.00;97242.84;4906483;29;20205;-56
2022/09/21 05:28:27;;;;;;;5.93;4.57;;;;;;;8.12;100.00;97251.81;4906349;29;20270;-55
2022/09/21 05:30:58;;;;;;;5.83;3.70;;;;;;;8.12;100.00;97253.59;4907789;29;20223;-56
2022/09/21 05:33:29;;;;;;;5.00;4.20;;;;;;;8.20;100.00;97245.97;4908172;29;20204;-55
2022/09/21 05:36:02;;;;;;;6.83;4.10;;;;;;;8.17;100.00;97251.47;4907043;29;20232;-54
2022/09/21 05:38:29;;;;;;;5.97;4.00;;;;;;;8.23;100.00;97258.91;4906112;29;20212;-54
2022/09/21 05:40:56;;;;;;;6.43;4.50;;;;;;;8.21;100.00;97250.28;4906667;29;20706;-56
2022/09/21 05:43:24;;;;;;;6.57;4.33;;;;;;;8.29;100.00;97251.41;4906580;29;20645;-56
2022/09/21 05:45:53;;;;;;;4.47;4.00;;;;;;;8.37;100.00;97256.13;4908507;29;20256;-56
2022/09/21 05:48:22;;;;;;;6.23;4.13;;;;;;;8.35;100.00;97245.72;4907407;29;20291;-54
2022/09/21 05:51:03;;;;;;;6.10;4.90;;;;;;;8.25;100.00;97260.50;4906913;29;20300;-55
2022/09/21 05:53:50;;;;;;;7.83;4.47;;;;;;;8.41;100.00;97254.94;4906904;29;20272;-54
2022/09/21 05:56:24;;;;;;;6.50;4.70;;;;;;;8.41;100.00;97253.16;4906172;29;20565;-54
2022/09/21 05:58:58;;;;;;;4.70;4.17;;;;;;;8.48;100.00;97254.38;4906189;29;20207;-55
2022/09/21 06:01:35;;;;;;;7.43;4.30;;;;;;;8.60;100.00;97254.41;4906358;29;20243;-55
2022/09/21 06:04:03;;;;;;;5.57;4.57;;;;;;;8.64;100.00;97250.59;4905598;29;20204;-53
2022/09/21 06:06:31;;;;;;;5.43;4.40;;;;;;;8.72;100.00;97253.47;4906225;29;20299;-54
2022/09/21 06:08:58;;;;;;;5.97;4.87;;;;;;;8.84;100.00;97258.66;4905676;29;20247;-53
2022/09/21 06:11:25;;;;;;;6.80;4.33;;;;;;;8.94;100.00;97259.63;4905984;29;20295;-54
2022/09/21 06:13:51;;;;;;;6.90;4.47;;;;;;;9.12;100.00;97256.53;4905932;29;20284;-54
2022/09/21 06:16:18;;;;;;;7.03;4.87;;;;;;;9.24;100.00;97263.50;4908445;29;20228;-53
2022/09/21 06:18:45;;;;;;;5.93;5.03;;;;;;;9.41;100.00;97260.38;4908623;29;20701;-54
2022/09/21 06:21:11;;;;;;;9.07;4.83;;;;;;;9.57;97.53;97250.25;4907680;29;20312;-53
2022/09/21 06:23:39;;;;;;;7.50;4.40;;;;;;;9.85;97.49;97255.00;4909829;29;20306;-54
2022/09/21 06:26:06;;;;;;;5.00;4.50;;;;;;;10.59;94.55;97245.41;4909016;29;20235;-54
2022/09/21 06:28:32;;;;;;;6.27;4.20;;;;;;;11.79;88.60;97243.81;4908735;29;20300;-52
2022/09/21 06:30:59;;;;;;;5.33;3.90;;;;;;;12.40;79.88;97248.88;4908787;29;20942;-55
2022/09/21 06:33:26;;;;;;;4.17;3.70;;;;;;;13.22;73.14;97246.56;4909633;29;20212;-54
2022/09/21 06:35:53;;;;;;;4.53;3.97;;;;;;;13.88;72.91;97240.13;4911928;29;20656;-56
2022/09/21 06:38:21;;;;;;;5.93;4.03;;;;;;;13.80;70.61;97241.84;4911036;29;20211;-55
2022/09/21 06:40:50;;;;;;;7.13;3.87;;;;;;;14.08;69.52;97246.16;4909965;29;20303;-55
2022/09/21 06:43:16;;;;;;;8.17;3.97;;;;;;;14.29;69.61;97249.34;4908439;29;20228;-56
2022/09/21 06:45:43;;;;;;;4.07;3.67;;;;;;;14.57;69.08;97241.31;4909519;29;20218;-55
2022/09/21 06:48:10;;;;;;;8.70;3.90;;;;;;;14.55;68.90;97238.81;4909109;29;20274;-54
2022/09/21 06:50:36;;;;;;;5.47;4.10;;;;;;;14.70;68.77;97250.59;4909513;29;20212;-54
2022/09/21 06:53:04;;;;;;;5.40;4.13;;;;;;;14.71;68.30;97244.28;4909048;29;20209;-55
2022/09/21 06:55:31;;;;;;;6.47;3.97;;;;;;;14.26;68.17;97243.50;4909013;29;20295;-55
2022/09/21 06:58:01;;;;;;;5.97;3.97;;;;;;;13.96;68.44;97248.16;4908692;29;20315;-55
2022/09/21 07:00:28;;;;;;;7.97;3.80;;;;;;;13.36;72.30;97243.44;4908480;29;20219;-55
2022/09/21 07:02:55;;;;;;;5.33;3.67;;;;;;;13.28;72.49;97240.69;4908368;29;20233;-55
2022/09/21 07:05:21;;;;;;;6.53;4.20;;;;;;;12.89;74.26;97248.69;4908431;29;20654;-55
2022/09/21 07:07:48;;;;;;;7.50;4.20;;;;;;;12.88;75.21;97244.38;4908592;29;20580;-55
2022/09/21 07:10:15;;;;;;;5.60;4.40;;;;;;;12.46;75.54;97253.63;4908536;29;20247;-55
2022/09/21 07:12:42;;;;;;;4.30;3.90;;;;;;;12.10;76.80;97246.34;4909716;29;20236;-55
2022/09/21 07:15:12;;;;;;;7.47;4.17;;;;;;;12.20;78.58;97249.84;4909552;29;20668;-55
2022/09/21 07:17:39;;;;;;;5.77;3.87;;;;;;;12.06;78.28;97245.78;4909797;29;20201;-55
2022/09/21 07:20:07;;;;;;;4.53;3.90;;;;;;;11.84;78.63;97246.84;4909502;29;20215;-55
2022/09/21 07:22:34;;;;;;;7.33;4.23;;;;;;;11.87;79.50;97246.59;4908797;29;20220;-55
2022/09/21 07:25:01;;;;;;;7.97;4.57;;;;;;;11.84;79.86;97244.22;4908577;29;20299;-55
2022/09/21 07:27:30;;;;;;;7.63;4.13;;;;;;;11.65;80.02;97246.78;4909078;29;20223;-54
2022/09/21 07:29:56;;;;;;;7.57;4.43;;;;;;;11.56;83.00;97257.34;4909652;29;20701;-55
2022/09/21 07:32:24;;;;;;;4.40;4.00;;;;;;;11.75;81.16;97253.00;4909248;29;20212;-53
2022/09/21 07:34:55;;;;;;;6.67;4.37;;;;;;;11.80;81.13;97255.22;4909872;29;20204;-56
2022/09/21 07:37:22;;;;;;;9.00;4.40;;;;;;;11.74;79.72;97251.31;4917342;29;21373;-55
2022/09/21 07:39:49;;;;;;;6.53;4.10;;;;;;;11.75;80.66;97253.00;4918984;29;20209;-55
2022/09/21 07:42:16;;;;;;;4.80;4.40;;;;;;;11.77;81.24;97256.31;4912622;29;20267;-55
2022/09/21 07:44:43;;;;;;;4.90;4.50;;;;;;;11.73;81.10;97260.22;4912986;29;20235;-55
2022/09/21 07:47:11;;;;;;;6.40;4.03;;;;;;;11.74;79.34;97253.94;4924807;29;20223;-56
2022/09/21 07:49:39;;;;;;;8.30;4.40;;;;;;;11.66;80.85;97261.69;4925575;29;20232;-55
2022/09/21 07:52:07;;;;;;;8.37;4.60;;;;;;;11.57;81.46;97259.88;4909209;29;20207;-56
2022/09/21 07:54:34;;;;;;;7.03;4.63;;;;;;;11.66;81.98;97253.75;4908964;29;20268;-55
2022/09/21 07:59:45;;;;;;;8.27;4.87;;;;;;;11.56;82.03;97255.53;4879454;29;20200;-55
2022/09/21 08:02:12;;;;;;;6.70;4.67;;;;;;;11.47;81.87;97253.69;4908030;29;20371;-55
2022/09/21 08:04:40;;;;;;;5.37;3.97;;;;;;;11.56;81.74;97247.59;4908619;29;20307;-55
2022/09/21 08:07:07;;;;;;;6.53;4.30;;;;;;;11.59;83.05;97243.81;4907762;29;20244;-56
2022/09/21 08:09:33;;;;;;;5.63;4.10;;;;;;;11.79;81.39;97241.16;4907711;29;20300;-56
2022/09/21 08:12:00;;;;;;;4.97;4.00;;;;;;;11.80;81.80;97240.16;4907513;29;20296;-55
2022/09/21 08:14:28;;;;;;;6.23;4.37;;;;;;;11.77;80.77;97245.72;4907458;29;20212;-55
2022/09/21 08:16:54;;;;;;;5.40;4.33;;;;;;;11.94;82.73;97253.00;4907484;29;20215;-56
2022/09/21 08:19:24;;;;;;;8.87;4.50;;;;;;;12.08;80.86;97253.63;4907318;29;20287;-55
2022/09/21 08:21:52;;;;;;;5.93;4.33;;;;;;;12.09;79.59;97245.50;4907247;29;20208;-55
2022/09/21 08:24:19;;;;;;;6.87;4.53;;;;;;;12.20;78.61;97252.50;4907361;29;20215;-56
2022/09/21 08:26:47;;;;;;;5.17;4.00;;;;;;;12.27;78.05;97248.31;4907511;29;20223;-56
2022/09/21 08:29:14;;;;;;;5.57;4.30;;;;;;;12.37;76.96;97243.84;4907215;29;20215;-54
2022/09/21 08:31:42;;;;;;;6.77;4.20;;;;;;;12.52;77.85;97249.56;4907483;29;20594;-56
2022/09/21 08:34:08;;;;;;;6.27;4.13;;;;;;;12.50;76.20;97249.75;4906416;29;20268;-55
2022/09/21 08:36:35;;;;;;;5.63;3.90;;;;;;;12.57;77.12;97250.84;4906340;29;20295;-56
2022/09/21 08:39:03;;;;;;;6.10;3.83;;;;;;;12.57;75.74;97245.53;4907395;29;20294;-56
2022/09/21 08:41:42;;;;;;;5.20;4.20;;;;;;;12.69;75.50;97248.88;4906519;29;20307;-55
2022/09/21 08:44:13;;;;;;;5.40;4.10;;;;;;;12.85;74.69;97252.63;4906617;29;20795;-55
2022/09/21 08:46:41;;;;;;;5.77;3.90;;;;;;;13.01;73.64;97243.22;4906672;29;20217;-56
2022/09/21 08:49:13;;;;;;;4.00;3.60;;;;;;;13.08;73.89;97244.31;4906912;29;20298;-55
2022/09/21 08:51:46;;;;;;;7.00;4.00;;;;;;;13.15;74.65;97248.09;4907174;29;20201;-56
2022/09/21 08:54:19;;;;;;;6.67;3.73;;;;;;;13.35;74.68;97237.31;4907086;29;20740;-55
2022/09/21 08:56:46;;;;;;;4.17;3.77;;;;;;;13.61;72.04;97237.44;4906478;29;20231;-55
2022/09/21 08:59:14;;;;;;;4.20;3.63;;;;;;;13.82;71.71;97240.69;4906548;29;20220;-55
2022/09/21 09:01:51;;;;;;;4.40;4.00;;;;;;;14.04;70.89;97233.28;4906564;29;20221;-55
2022/09/21 09:04:35;;;;;;;6.63;3.60;;;;;;;14.32;67.88;97238.41;4906458;29;20320;-55
2022/09/21 09:07:14;;;;;;;4.53;3.80;;;;;;;14.37;68.09;97230.00;4906261;29;20200;-55
2022/09/21 09:09:56;;;;;;;4.20;3.10;;;;;;;14.76;67.77;97225.19;4906567;29;20290;-56
2022/09/21 09:12:35;;;;;;;7.33;3.40;;;;;;;15.15;66.32;97220.28;4906324;29;20620;-55
2022/09/21 09:15:15;;;;;;;4.23;3.37;;;;;;;15.12;64.20;97233.94;4906654;29;20299;-55
2022/09/21 09:17:50;;;;;;;5.43;3.70;;;;;;;15.33;63.10;97229.06;4906740;29;20310;-56
2022/09/21 09:20:20;;;;;;;4.43;4.00;;;;;;;15.48;63.21;97222.13;4906461;29;20212;-54
2022/09/21 09:22:49;;;;;;;4.40;3.70;;;;;;;15.73;63.02;97221.28;4905518;29;20282;-55
2022/09/21 09:25:21;;;;;;;3.60;3.15;;;;;;;16.10;63.34;97220.91;4906494;29;20303;-53
2022/09/21 09:27:51;;;;;;;7.53;3.50;;;;;;;16.35;60.67;97216.44;4905981;29;20291;-55
2022/09/21 09:30:20;;;;;;;7.27;3.10;;;;;;;16.54;59.33;97218.81;4906174;29;20299;-54
2022/09/21 09:32:52;;;;;;;4.80;2.85;;;;;;;16.88;58.62;97208.81;4905952;29;20201;-55
2022/09/21 09:35:25;;;;;;;4.90;2.90;;;;;;;17.15;57.96;97207.59;4905587;29;20549;-54
2022/09/21 09:37:52;;;;;;;3.92;2.80;;;;;;;17.18;54.27;97209.13;4905890;29;20208;-55
2022/09/21 09:40:34;;;;;;;3.92;2.78;;;;;;;17.41;53.91;97200.19;4906070;29;20216;-55
2022/09/21 09:43:04;;;;;;;4.68;2.67;;;;;;;17.63;54.38;97195.97;4905802;29;20227;-53
2022/09/21 09:45:42;;;;;;;5.22;2.80;;;;;;;17.73;52.80;97187.72;4905711;29;20248;-53
2022/09/21 09:48:50;;;;;;;3.05;2.75;;;;;;;17.57;51.71;97196.63;4906110;29;20294;-53
2022/09/21 09:51:18;;;;;;;4.15;2.63;;;;;;;17.83;51.46;97191.03;4905569;29;20302;-55
2022/09/21 09:53:45;;;;;;;5.72;2.95;;;;;;;17.94;50.87;97171.06;4905140;29;20259;-54
2022/09/21 09:56:13;;;;;;;2.67;2.47;;;;;;;18.10;50.69;97170.97;4905096;29;20243;-55
2022/09/21 09:58:44;;;;;;;5.00;2.50;;;;;;;18.48;50.11;97178.06;4905795;29;20219;-56
2022/09/21 10:01:40;;;;;;;4.68;2.47;;;;;;;18.25;48.94;97171.88;4905433;29;20212;-53
2022/09/21 10:04:08;;;;;;;3.90;2.40;;;;;;;18.61;48.85;97172.97;4905332;29;20268;-55
2022/09/21 10:06:35;;;;;;;2.97;2.40;;;;;;;18.69;48.94;97164.88;4905762;29;20213;-55
2022/09/21 10:09:01;;;;;;;6.75;2.70;;;;;;;18.78;48.11;97166.44;4905450;29;20538;-55
2022/09/21 10:11:34;;;;;;;2.38;2.20;;;;;;;18.80;49.28;97161.75;4905747;29;20287;-55
2022/09/21 10:14:08;;;;;;;2.30;2.10;;;;;;;19.11;48.37;97169.66;4905973;29;20300;-55
2022/09/21 10:16:41;;;;;;;4.68;2.30;;;;;;;18.93;48.40;97154.94;4906834;29;20223;-56
2022/09/21 10:19:15;;;;;;;3.85;2.20;;;;;;;19.12;45.59;97154.41;4906894;29;20638;-54
2022/09/21 10:21:43;;;;;;;4.80;2.10;;;;;;;19.29;46.30;97151.38;4907724;29;20200;-56
2022/09/21 10:24:18;;;;;;;3.22;2.20;;;;;;;18.51;44.26;97153.63;4907432;29;20224;-54
2022/09/21 10:26:47;;;;;;;3.83;2.28;;;;;;;18.45;45.44;97148.13;4908010;29;20199;-55
2022/09/21 10:29:19;;;;;;;3.20;1.98;;;;;;;18.60;46.90;97139.16;4907420;29;20621;-56
2022/09/21 10:31:56;;;;;;;4.90;2.00;;;;;;;18.85;46.10;97137.91;4906985;29;20212;-56
2022/09/21 10:34:23;;;;;;;2.58;1.80;;;;;;;19.05;45.08;97137.38;4905746;29;20208;-54
2022/09/21 10:36:53;;;;;;;2.97;1.88;;;;;;;18.91;43.75;97135.53;4905724;29;20405;-54
2022/09/21 10:39:25;;;;;;;3.03;1.75;;;;;;;19.23;43.48;97140.53;4905725;29;20300;-55
2022/09/21 10:41:54;;;;;;;2.65;1.90;;;;;;;19.24;44.02;97131.47;4906844;29;20236;-55
2022/09/21 10:44:22;;;;;;;2.50;1.90;;;;;;;19.35;43.14;97136.38;4909520;29;20254;-55
2022/09/21 10:46:50;;;;;;;3.30;1.83;;;;;;;19.34;43.57;97127.47;4910273;29;20615;-54
2022/09/21 10:49:21;;;;;;;4.05;1.85;;;;;;;19.53;43.74;97126.13;4905958;29;20267;-55
2022/09/21 10:51:49;;;;;;;1.58;1.20;;;;;;;19.80;41.81;97128.09;4905400;29;20220;-54
2022/09/21 10:54:22;;;;;;;1.85;1.45;;;;;;;19.99;42.47;97118.63;4904961;29;20216;-57
2022/09/21 10:56:53;;;;;;;2.10;1.30;;;;;;;19.93;41.53;97118.53;4904901;29;20239;-56
2022/09/21 10:59:26;;;;;;;1.55;1.20;;;;;;;19.38;40.25;97115.38;4905125;29;20287;-55
2022/09/21 11:01:54;;;;;;;1.95;1.75;;;;;;;19.53;40.06;97126.13;4904779;29;20284;-53
2022/09/21 11:04:38;;;;;;;1.35;1.25;;;;;;;19.72;40.29;97114.81;4904932;29;20327;-54
2022/09/21 11:07:15;;;;;;;2.80;1.45;;;;;;;19.72;39.04;97114.81;4905257;29;20390;-53
2022/09/21 11:09:46;;;;;;;2.00;1.50;;;;;;;19.96;40.57;97112.78;4907454;29;20208;-54
2022/09/21 11:12:27;;;;;;;2.92;1.77;;;;;;;20.15;41.64;97110.34;4908690;29;20204;-55
2022/09/21 11:14:59;;;;;;;3.25;1.58;;;;;;;20.28;40.95;97106.97;4921639;29;20230;-55
2022/09/21 11:17:33;;;;;;;2.63;1.42;;;;;;;20.35;41.54;97100.63;4917732;29;20240;-54
2022/09/21 11:20:08;;;;;;;2.40;1.48;;;;;;;20.40;40.20;97102.75;4910675;29;20286;-54
2022/09/21 11:22:41;;;;;;;1.67;1.30;;;;;;;20.33;38.91;97109.91;4916143;29;20235;-54
2022/09/21 11:25:25;;;;;;;2.63;1.33;;;;;;;20.16;39.17;97100.41;4912606;29;20681;-55
2022/09/21 11:27:57;;;;;;;1.73;1.25;;;;;;;20.25;39.79;97091.19;4908332;29;20234;-53
2022/09/21 11:30:24;;;;;;;2.85;1.17;;;;;;;20.26;38.03;97098.25;4908083;29;20287;-56
2022/09/21 11:33:02;;;;;;;2.38;0.98;;;;;;;20.45;36.31;97097.59;4908266;29;20303;-53
2022/09/21 11:35:39;;;;;;;2.58;0.98;;;;;;;20.07;32.30;97098.88;4908071;29;20207;-54
2022/09/21 11:38:12;;;;;;;1.20;0.90;;;;;;;20.00;34.15;97096.13;4907528;29;20630;-56
2022/09/21 11:41:05;;;;;;;1.60;1.10;;;;;;;19.92;33.96;97098.91;4907992;29;20208;-54
2022/09/21 11:43:53;;;;;;;1.73;1.23;;;;;;;19.68;34.24;97100.09;4907656;29;20244;-56
2022/09/21 11:46:25;;;;;;;2.13;1.13;;;;;;;19.59;35.13;97087.00;4907245;29;20223;-55
2022/09/21 11:49:10;;;;;;;1.23;0.90;;;;;;;19.93;35.98;97094.38;4907778;29;20240;-55
2022/09/21 11:51:47;;;;;;;3.10;1.10;;;;;;;19.86;37.31;97089.78;4907848;29;20204;-53